sensor_id;sensor_type;location;lat;lon;timestamp;P1;durP1;ratioP1;P2;durP2;ratioP2
56233;SDS011;42141;53.240;6.580;2022-09-21T00:00:50;4.53;;;1.60;;
56233;SDS011;42141;53.240;6.580;2022-09-21T00:03:16;11.13;;;1.88;;
56233;SDS011;42141;53.240;6.580;2022-09-21T00:05:42;4.80;;;2.25;;
56233;SDS011;42141;53.240;6.580;2022-09-21T00:08:09;5.60;;;1.98;;
56233;SDS011;42141;53.240;6.580;2022-09-21T00:10:37;6.22;;;2.83;;
56233;SDS011;42141;53.240;6.580;2022-09-21T00:13:04;7.90;;;2.80;;
56233;SDS011;42141;53.240;6.580;2022-09-21T00:15:32;4.55;;;2.28;;
56233;SDS011;42141;53.240;6.580;2022-09-21T00:17:58;5.15;;;2.53;;
56233;SDS011;42141;53.240;6.580;2022-09-21T00:20:24;5.38;;;2.08;;
56233;SDS011;42141;53.240;6.580;2022-09-21T00:22:52;7.32;;;2.35;;
56233;SDS011;42141;53.240;6.580;2022-09-21T00:25:18;12.85;;;2.22;;
56233;SDS011;42141;53.240;6.580;2022-09-21T00:27:44;9.73;;;2.60;;
56233;SDS011;42141;53.240;6.580;2022-09-21T00:30:14;5.95;;;2.30;;
56233;SDS011;42141;53.240;6.580;2022-09-21T00:32:40;5.57;;;2.70;;
56233;SDS011;42141;53.240;6.580;2022-09-21T00:35:06;5.85;;;1.90;;
56233;SDS011;42141;53.240;6.580;2022-09-21T00:37:32;6.15;;;2.10;;
56233;SDS011;42141;53.240;6.580;2022-09-21T00:39:59;5.50;;;2.13;;
56233;SDS011;42141;53.240;6.580;2022-09-21T00:42:28;5.35;;;2.42;;
56233;SDS011;42141;53.240;6.580;2022-09-21T00:44:55;7.03;;;2.33;;
56233;SDS011;42141;53.240;6.580;2022-09-21T00:47:43;6.03;;;2.58;;
56233;SDS011;42141;53.240;6.580;2022-09-21T00:50:09;4.85;;;1.83;;
56233;SDS011;42141;53.240;6.580;2022-09-21T00:52:43;4.10;;;1.95;;
56233;SDS011;42141;53.240;6.580;2022-09-21T00:55:16;6.90;;;2.13;;
56233;SDS011;42141;53.240;6.580;2022-09-21T00:57:57;5.88;;;2.72;;
56233;SDS011;42141;53.240;6.580;2022-09-21T01:00:26;7.60;;;2.00;;
56233;SDS011;42141;53.240;6.580;2022-09-21T01:02:53;5.72;;;2.58;;
56233;SDS011;42141;53.240;6.580;2022-09-21T01:05:25;5.88;;;2.05;;
56233;SDS011;42141;53.240;6.580;2022-09-21T01:07:52;6.40;;;2.38;;
56233;SDS011;42141;53.240;6.580;2022-09-21T01:10:20;4.63;;;2.20;;
56233;SDS011;42141;53.240;6.580;2022-09-21T01:21:16;7.05;;;2.58;;
56233;SDS011;42141;53.240;6.580;2022-09-21T01:23:51;6.88;;;2.15;;
56233;SDS011;42141;53.240;6.580;2022-09-21T01:31:57;4.63;;;2.13;;
56233;SDS011;42141;53.240;6.580;2022-09-21T01:37:07;6.82;;;2.65;;
56233;SDS011;42141;53.240;6.580;2022-09-21T01:39:37;4.45;;;2.03;;
56233;SDS011;42141;53.240;6.580;2022-09-21T01:42:06;9.18;;;2.33;;
56233;SDS011;42141;53.240;6.580;2022-09-21T01:44:33;6.07;;;2.53;;
56233;SDS011;42141;53.240;6.580;2022-09-21T01:47:02;5.40;;;2.38;;
56233;SDS011;42141;53.240;6.580;2022-09-21T01:49:34;6.88;;;2.65;;
56233;SDS011;42141;53.240;6.580;2022-09-21T01:52:12;4.65;;;2.78;;
56233;SDS011;42141;53.240;6.580;2022-09-21T01:54:46;9.18;;;2.85;;
56233;SDS011;42141;53.240;6.580;2022-09-21T01:57:25;7.85;;;2.67;;
56233;SDS011;42141;53.240;6.580;2022-09-21T02:00:00;12.50;;;3.53;;
56233;SDS011;42141;53.240;6.580;2022-09-21T02:04:58;4.95;;;2.33;;
56233;SDS011;42141;53.240;6.580;2022-09-21T02:07:25;6.68;;;2.63;;
56233;SDS011;42141;53.240;6.580;2022-09-21T02:09:52;6.57;;;2.70;;
56233;SDS011;42141;53.240;6.580;2022-09-21T02:12:20;5.40;;;2.78;;
56233;SDS011;42141;53.240;6.580;2022-09-21T02:14:47;6.20;;;2.60;;
56233;SDS011;42141;53.240;6.580;2022-09-21T02:17:25;7.72;;;2.65;;
56233;SDS011;42141;53.240;6.580;2022-09-21T02:24:58;5.57;;;2.80;;
56233;SDS011;42141;53.240;6.580;2022-09-21T02:30:21;9.35;;;3.25;;
56233;SDS011;42141;53.240;6.580;2022-09-21T02:32:59;4.38;;;2.50;;
56233;SDS011;42141;53.240;6.580;2022-09-21T02:38:48;4.55;;;2.30;;
56233;SDS011;42141;53.240;6.580;2022-09-21T02:41:30;4.75;;;2.10;;
56233;SDS011;42141;53.240;6.580;2022-09-21T02:44:06;7.07;;;2.28;;
56233;SDS011;42141;53.240;6.580;2022-09-21T02:49:17;10.07;;;3.60;;
56233;SDS011;42141;53.240;6.580;2022-09-21T02:51:47;8.60;;;2.47;;
56233;SDS011;42141;53.240;6.580;2022-09-21T02:54:16;6.32;;;2.53;;
56233;SDS011;42141;53.240;6.580;2022-09-21T02:56:46;3.55;;;2.40;;
56233;SDS011;42141;53.240;6.580;2022-09-21T02:59:13;5.22;;;2.47;;
56233;SDS011;42141;53.240;6.580;2022-09-21T03:01:42;4.95;;;2.58;;
56233;SDS011;42141;53.240;6.580;2022-09-21T03:04:09;3.38;;;2.30;;
56233;SDS011;42141;53.240;6.580;2022-09-21T03:06:35;7.95;;;4.57;;
56233;SDS011;42141;53.240;6.580;2022-09-21T03:09:01;4.22;;;2.60;;
56233;SDS011;42141;53.240;6.580;2022-09-21T03:11:26;4.88;;;2.80;;
56233;SDS011;42141;53.240;6.580;2022-09-21T03:13:52;5.63;;;3.28;;
56233;SDS011;42141;53.240;6.580;2022-09-21T03:16:18;6.10;;;2.70;;
56233;SDS011;42141;53.240;6.580;2022-09-21T03:18:44;4.38;;;2.47;;
56233;SDS011;42141;53.240;6.580;2022-09-21T03:21:10;4.65;;;2.25;;
56233;SDS011;42141;53.240;6.580;2022-09-21T03:23:36;3.53;;;2.40;;
56233;SDS011;42141;53.240;6.580;2022-09-21T03:26:03;3.65;;;2.70;;
56233;SDS011;42141;53.240;6.580;2022-09-21T03:28:28;4.10;;;2.50;;
56233;SDS011;42141;53.240;6.580;2022-09-21T03:30:54;5.63;;;2.78;;
56233;SDS011;42141;53.240;6.580;2022-09-21T03:33:20;6.35;;;2.50;;
56233;SDS011;42141;53.240;6.580;2022-09-21T03:35:49;6.25;;;2.60;;
56233;SDS011;42141;53.240;6.580;2022-09-21T03:38:16;5.13;;;2.50;;
56233;SDS011;42141;53.240;6.580;2022-09-21T03:40:46;4.18;;;2.35;;
56233;SDS011;42141;53.240;6.580;2022-09-21T03:43:13;7.07;;;2.80;;
56233;SDS011;42141;53.240;6.580;2022-09-21T03:45:39;5.32;;;2.72;;
56233;SDS011;42141;53.240;6.580;2022-09-21T03:48:07;5.38;;;2.38;;
56233;SDS011;42141;53.240;6.580;2022-09-21T03:50:33;5.75;;;3.70;;
56233;SDS011;42141;53.240;6.580;2022-09-21T03:52:59;5.47;;;2.63;;
56233;SDS011;42141;53.240;6.580;2022-09-21T03:55:25;4.13;;;2.50;;
56233;SDS011;42141;53.240;6.580;2022-09-21T03:57:51;13.82;;;3.05;;
56233;SDS011;42141;53.240;6.580;2022-09-21T04:00:17;4.57;;;2.60;;
56233;SDS011;42141;53.240;6.580;2022-09-21T04:02:43;8.13;;;2.95;;
56233;SDS011;42141;53.240;6.580;2022-09-21T04:05:10;7.95;;;3.17;;
56233;SDS011;42141;53.240;6.580;2022-09-21T04:07:38;4.25;;;2.75;;
56233;SDS011;42141;53.240;6.580;2022-09-21T04:10:06;6.40;;;3.10;;
56233;SDS011;42141;53.240;6.580;2022-09-21T04:12:37;13.27;;;3.35;;
56233;SDS011;42141;53.240;6.580;2022-09-21T04:15:03;5.60;;;2.88;;
56233;SDS011;42141;53.240;6.580;2022-09-21T04:17:31;6.90;;;2.38;;
56233;SDS011;42141;53.240;6.580;2022-09-21T04:19:57;6.10;;;2.65;;
56233;SDS011;42141;53.240;6.580;2022-09-21T04:22:23;6.50;;;2.30;;
56233;SDS011;42141;53.240;6.580;2022-09-21T04:24:49;6.10;;;2.80;;
56233;SDS011;42141;53.240;6.580;2022-09-21T04:27:15;8.32;;;2.47;;
56233;SDS011;42141;53.240;6.580;2022-09-21T04:29:42;8.00;;;2.90;;
56233;SDS011;42141;53.240;6.580;2022-09-21T04:32:09;5.18;;;3.10;;
56233;SDS011;42141;53.240;6.580;2022-09-21T04:34:35;8.35;;;3.00;;
56233;SDS011;42141;53.240;6.580;2022-09-21T04:37:03;6.20;;;2.92;;
56233;SDS011;42141;53.240;6.580;2022-09-21T04:39:38;7.15;;;2.97;;
56233;SDS011;42141;53.240;6.580;2022-09-21T04:42:04;11.25;;;2.83;;
56233;SDS011;42141;53.240;6.580;2022-09-21T04:44:31;12.25;;;2.95;;
56233;SDS011;42141;53.240;6.580;2022-09-21T04:46:56;4.50;;;2.63;;
56233;SDS011;42141;53.240;6.580;2022-09-21T04:49:22;8.23;;;2.70;;
56233;SDS011;42141;53.240;6.580;2022-09-21T04:51:48;11.98;;;2.58;;
56233;SDS011;42141;53.240;6.580;2022-09-21T04:54:14;5.57;;;3.03;;
56233;SDS011;42141;53.240;6.580;2022-09-21T04:56:41;8.35;;;2.60;;
56233;SDS011;42141;53.240;6.580;2022-09-21T04:59:07;3.72;;;2.50;;
56233;SDS011;42141;53.240;6.580;2022-09-21T05:01:32;6.35;;;2.85;;
56233;SDS011;42141;53.240;6.580;2022-09-21T05:03:58;4.50;;;2.45;;
56233;SDS011;42141;53.240;6.580;2022-09-21T05:06:29;4.28;;;2.72;;
56233;SDS011;42141;53.240;6.580;2022-09-21T05:08:57;5.07;;;2.88;;
56233;SDS011;42141;53.240;6.580;2022-09-21T05:11:42;6.28;;;2.33;;
56233;SDS011;42141;53.240;6.580;2022-09-21T05:14:08;5.47;;;2.28;;
56233;SDS011;42141;53.240;6.580;2022-09-21T05:16:37;7.97;;;2.88;;
56233;SDS011;42141;53.240;6.580;2022-09-21T05:19:03;8.43;;;2.33;;
56233;SDS011;42141;53.240;6.580;2022-09-21T05:21:29;4.55;;;2.60;;
56233;SDS011;42141;53.240;6.580;2022-09-21T05:23:58;6.80;;;2.38;;
56233;SDS011;42141;53.240;6.580;2022-09-21T05:26:23;5.22;;;2.33;;
56233;SDS011;42141;53.240;6.580;2022-09-21T05:28:49;16.27;;;3.53;;
56233;SDS011;42141;53.240;6.580;2022-09-21T05:33:43;6.10;;;2.67;;
56233;SDS011;42141;53.240;6.580;2022-09-21T05:39:06;5.72;;;2.38;;
56233;SDS011;42141;53.240;6.580;2022-09-21T05:41:32;7.55;;;2.38;;
56233;SDS011;42141;53.240;6.580;2022-09-21T05:43:58;5.97;;;2.63;;
56233;SDS011;42141;53.240;6.580;2022-09-21T05:46:37;5.68;;;2.42;;
56233;SDS011;42141;53.240;6.580;2022-09-21T05:52:07;5.45;;;2.53;;
56233;SDS011;42141;53.240;6.580;2022-09-21T05:57:54;7.57;;;2.55;;
56233;SDS011;42141;53.240;6.580;2022-09-21T06:00:31;4.38;;;2.47;;
56233;SDS011;42141;53.240;6.580;2022-09-21T06:03:24;5.55;;;2.50;;
56233;SDS011;42141;53.240;6.580;2022-09-21T06:05:57;7.32;;;2.30;;
56233;SDS011;42141;53.240;6.580;2022-09-21T06:08:24;4.30;;;2.50;;
56233;SDS011;42141;53.240;6.580;2022-09-21T06:10:50;3.97;;;2.63;;
56233;SDS011;42141;53.240;6.580;2022-09-21T06:13:16;4.18;;;2.45;;
56233;SDS011;42141;53.240;6.580;2022-09-21T06:15:42;5.88;;;2.47;;
56233;SDS011;42141;53.240;6.580;2022-09-21T06:18:08;5.15;;;2.45;;
56233;SDS011;42141;53.240;6.580;2022-09-21T06:20:34;3.58;;;2.35;;
56233;SDS011;42141;53.240;6.580;2022-09-21T06:23:01;5.70;;;3.33;;
56233;SDS011;42141;53.240;6.580;2022-09-21T06:25:31;8.13;;;3.00;;
56233;SDS011;42141;53.240;6.580;2022-09-21T06:28:15;5.60;;;3.13;;
56233;SDS011;42141;53.240;6.580;2022-09-21T06:30:41;8.23;;;3.30;;
56233;SDS011;42141;53.240;6.580;2022-09-21T06:33:09;5.00;;;2.90;;
56233;SDS011;42141;53.240;6.580;2022-09-21T06:35:35;7.95;;;3.17;;
56233;SDS011;42141;53.240;6.580;2022-09-21T06:38:07;7.75;;;3.70;;
56233;SDS011;42141;53.240;6.580;2022-09-21T06:40:34;7.05;;;3.72;;
56233;SDS011;42141;53.240;6.580;2022-09-21T06:43:01;7.10;;;4.88;;
56233;SDS011;42141;53.240;6.580;2022-09-21T06:45:29;7.05;;;4.70;;
56233;SDS011;42141;53.240;6.580;2022-09-21T06:47:55;10.60;;;4.55;;
56233;SDS011;42141;53.240;6.580;2022-09-21T06:50:21;12.70;;;5.40;;
56233;SDS011;42141;53.240;6.580;2022-09-21T06:52:47;9.38;;;5.47;;
56233;SDS011;42141;53.240;6.580;2022-09-21T06:55:13;8.18;;;4.22;;
56233;SDS011;42141;53.240;6.580;2022-09-21T06:57:39;17.30;;;5.18;;
56233;SDS011;42141;53.240;6.580;2022-09-21T07:00:06;10.23;;;4.95;;
56233;SDS011;42141;53.240;6.580;2022-09-21T07:02:33;13.40;;;4.40;;
56233;SDS011;42141;53.240;6.580;2022-09-21T07:04:59;11.20;;;4.38;;
56233;SDS011;42141;53.240;6.580;2022-09-21T07:07:26;12.50;;;4.22;;
56233;SDS011;42141;53.240;6.580;2022-09-21T07:09:56;17.58;;;4.57;;
56233;SDS011;42141;53.240;6.580;2022-09-21T07:12:25;7.32;;;4.03;;
56233;SDS011;42141;53.240;6.580;2022-09-21T07:14:52;8.55;;;3.97;;
56233;SDS011;42141;53.240;6.580;2022-09-21T07:17:17;9.18;;;3.47;;
56233;SDS011;42141;53.240;6.580;2022-09-21T07:19:43;7.47;;;3.58;;
56233;SDS011;42141;53.240;6.580;2022-09-21T07:22:09;7.75;;;3.22;;
56233;SDS011;42141;53.240;6.580;2022-09-21T07:24:35;11.93;;;3.50;;
56233;SDS011;42141;53.240;6.580;2022-09-21T07:27:01;15.85;;;3.40;;
56233;SDS011;42141;53.240;6.580;2022-09-21T07:29:26;8.68;;;3.67;;
56233;SDS011;42141;53.240;6.580;2022-09-21T07:31:52;7.18;;;2.70;;
56233;SDS011;42141;53.240;6.580;2022-09-21T07:34:18;24.08;;;3.17;;
56233;SDS011;42141;53.240;6.580;2022-09-21T07:36:43;10.18;;;2.42;;
56233;SDS011;42141;53.240;6.580;2022-09-21T07:39:09;12.15;;;3.10;;
56233;SDS011;42141;53.240;6.580;2022-09-21T07:41:35;9.65;;;2.20;;
56233;SDS011;42141;53.240;6.580;2022-09-21T07:44:01;13.18;;;2.55;;
56233;SDS011;42141;53.240;6.580;2022-09-21T07:46:27;7.10;;;2.15;;
56233;SDS011;42141;53.240;6.580;2022-09-21T07:48:54;7.22;;;1.38;;
56233;SDS011;42141;53.240;6.580;2022-09-21T07:51:20;7.78;;;1.63;;
56233;SDS011;42141;53.240;6.580;2022-09-21T07:53:47;8.73;;;1.60;;
56233;SDS011;42141;53.240;6.580;2022-09-21T07:56:19;11.10;;;1.98;;
56233;SDS011;42141;53.240;6.580;2022-09-21T07:58:45;7.72;;;2.15;;
56233;SDS011;42141;53.240;6.580;2022-09-21T08:01:39;6.50;;;1.63;;
56233;SDS011;42141;53.240;6.580;2022-09-21T08:04:06;7.93;;;1.20;;
56233;SDS011;42141;53.240;6.580;2022-09-21T08:06:34;9.95;;;1.27;;
56233;SDS011;42141;53.240;6.580;2022-09-21T08:09:03;4.15;;;0.90;;
56233;SDS011;42141;53.240;6.580;2022-09-21T08:11:30;11.35;;;1.38;;
56233;SDS011;42141;53.240;6.580;2022-09-21T08:13:58;10.68;;;1.15;;
56233;SDS011;42141;53.240;6.580;2022-09-21T08:16:26;5.72;;;1.40;;
56233;SDS011;42141;53.240;6.580;2022-09-21T08:18:53;7.75;;;1.35;;
56233;SDS011;42141;53.240;6.580;2022-09-21T08:21:19;8.80;;;1.98;;
56233;SDS011;42141;53.240;6.580;2022-09-21T08:23:45;4.07;;;1.10;;
56233;SDS011;42141;53.240;6.580;2022-09-21T08:26:13;6.07;;;1.30;;
56233;SDS011;42141;53.240;6.580;2022-09-21T08:28:47;8.00;;;1.00;;
56233;SDS011;42141;53.240;6.580;2022-09-21T08:31:16;8.33;;;1.00;;
56233;SDS011;42141;53.240;6.580;2022-09-21T08:33:43;6.57;;;0.95;;
56233;SDS011;42141;53.240;6.580;2022-09-21T08:36:10;5.68;;;0.88;;
56233;SDS011;42141;53.240;6.580;2022-09-21T08:38:36;3.08;;;0.63;;
56233;SDS011;42141;53.240;6.580;2022-09-21T08:41:12;11.23;;;1.08;;
56233;SDS011;42141;53.240;6.580;2022-09-21T08:43:43;6.43;;;0.90;;
56233;SDS011;42141;53.240;6.580;2022-09-21T08:46:15;7.13;;;0.70;;
56233;SDS011;42141;53.240;6.580;2022-09-21T08:51:44;5.60;;;0.75;;
56233;SDS011;42141;53.240;6.580;2022-09-21T08:54:39;5.10;;;0.70;;
56233;SDS011;42141;53.240;6.580;2022-09-21T09:01:51;2.88;;;0.52;;
56233;SDS011;42141;53.240;6.580;2022-09-21T09:29:05;5.32;;;0.80;;
56233;SDS011;42141;53.240;6.580;2022-09-21T09:32:04;8.23;;;1.00;;
56233;SDS011;42141;53.240;6.580;2022-09-21T09:35:31;7.00;;;0.85;;
56233;SDS011;42141;53.240;6.580;2022-09-21T09:39:08;4.40;;;0.70;;
56233;SDS011;42141;53.240;6.580;2022-09-21T09:50:42;7.43;;;0.60;;
56233;SDS011;42141;53.240;6.580;2022-09-21T09:55:40;2.20;;;0.35;;
56233;SDS011;42141;53.240;6.580;2022-09-21T10:01:03;4.32;;;0.60;;
56233;SDS011;42141;53.240;6.580;2022-09-21T10:03:37;4.13;;;0.47;;
56233;SDS011;42141;53.240;6.580;2022-09-21T10:06:04;6.22;;;0.50;;
56233;SDS011;42141;53.240;6.580;2022-09-21T10:23:10;5.22;;;0.77;;
56233;SDS011;42141;53.240;6.580;2022-09-21T10:33:27;4.25;;;0.70;;
56233;SDS011;42141;53.240;6.580;2022-09-21T11:13:29;2.80;;;0.73;;
56233;SDS011;42141;53.240;6.580;2022-09-21T11:21:51;7.65;;;1.73;;
56233;SDS011;42141;53.240;6.580;2022-09-21T11:24:33;6.53;;;0.70;;
56233;SDS011;42141;53.240;6.580;2022-09-21T11:39:13;2.50;;;0.50;;
56233;SDS011;42141;53.240;6.580;2022-09-21T11:42:04;3.33;;;0.40;;
56233;SDS011;42141;53.240;6.580;2022-09-21T11:52:36;4.28;;;0.65;;
56233;SDS011;42141;53.240;6.580;2022-09-21T11:55:24;6.75;;;1.10;;
56233;SDS011;42141;53.240;6.580;2022-09-21T12:01:06;3.60;;;0.60;;
56233;SDS011;42141;53.240;6.580;2022-09-21T12:03:43;4.20;;;0.68;;
56233;SDS011;42141;53.240;6.580;2022-09-21T12:09:30;3.42;;;0.38;;
56233;SDS011;42141;53.240;6.580;2022-09-21T12:15:12;3.55;;;0.60;;
56233;SDS011;42141;53.240;6.580;2022-09-21T12:23:18;2.40;;;0.30;;
56233;SDS011;42141;53.240;6.580;2022-09-21T12:25:53;3.33;;;0.60;;
56233;SDS011;42141;53.240;6.580;2022-09-21T12:28:36;3.78;;;0.60;;
56233;SDS011;42141;53.240;6.580;2022-09-21T12:36:45;1.50;;;0.32;;
56233;SDS011;42141;53.240;6.580;2022-09-21T12:42:25;2.88;;;0.30;;
56233;SDS011;42141;53.240;6.580;2022-09-21T12:53:18;2.30;;;0.40;;
56233;SDS011;42141;53.240;6.580;2022-09-21T12:56:00;3.22;;;0.50;;
56233;SDS011;42141;53.240;6.580;2022-09-21T13:01:32;4.40;;;1.10;;
56233;SDS011;42141;53.240;6.580;2022-09-21T13:09:38;4.32;;;0.57;;
56233;SDS011;42141;53.240;6.580;2022-09-21T13:12:14;4.13;;;0.50;;
56233;SDS011;42141;53.240;6.580;2022-09-21T13:14:54;4.55;;;0.50;;
56233;SDS011;42141;53.240;6.580;2022-09-21T13:17:27;3.17;;;0.50;;
56233;SDS011;42141;53.240;6.580;2022-09-21T13:19:56;6.78;;;0.70;;
56233;SDS011;42141;53.240;6.580;2022-09-21T13:22:31;3.67;;;0.85;;
56233;SDS011;42141;53.240;6.580;2022-09-21T13:35:50;2.80;;;0.57;;
56233;SDS011;42141;53.240;6.580;2022-09-21T13:41:36;3.33;;;0.50;;
56233;SDS011;42141;53.240;6.580;2022-09-21T13:44:20;2.90;;;0.40;;
56233;SDS011;42141;53.240;6.580;2022-09-21T13:47:11;7.97;;;0.70;;
56233;SDS011;42141;53.240;6.580;2022-09-21T13:49:57;5.07;;;0.60;;
56233;SDS011;42141;53.240;6.580;2022-09-21T13:55:23;4.32;;;0.93;;
56233;SDS011;42141;53.240;6.580;2022-09-21T13:57:58;4.78;;;0.80;;
56233;SDS011;42141;53.240;6.580;2022-09-21T14:00:51;5.10;;;0.40;;
56233;SDS011;42141;53.240;6.580;2022-09-21T14:03:22;14.23;;;0.52;;
56233;SDS011;42141;53.240;6.580;2022-09-21T14:05:54;3.20;;;0.45;;
56233;SDS011;42141;53.240;6.580;2022-09-21T14:08:39;2.90;;;0.35;;
56233;SDS011;42141;53.240;6.580;2022-09-21T14:14:00;2.42;;;0.63;;
56233;SDS011;42141;53.240;6.580;2022-09-21T14:24:40;3.88;;;0.70;;
56233;SDS011;42141;53.240;6.580;2022-09-21T14:27:17;3.45;;;0.60;;
56233;SDS011;42141;53.240;6.580;2022-09-21T14:30:03;5.50;;;0.90;;
56233;SDS011;42141;53.240;6.580;2022-09-21T14:32:32;3.83;;;0.73;;
56233;SDS011;42141;53.240;6.580;2022-09-21T14:35:22;3.78;;;0.63;;
56233;SDS011;42141;53.240;6.580;2022-09-21T14:37:52;5.13;;;0.80;;
56233;SDS011;42141;53.240;6.580;2022-09-21T14:40:22;7.88;;;0.85;;
56233;SDS011;42141;53.240;6.580;2022-09-21T14:42:50;3.97;;;0.70;;
56233;SDS011;42141;53.240;6.580;2022-09-21T14:45:18;3.85;;;0.43;;
56233;SDS011;42141;53.240;6.580;2022-09-21T14:48:07;3.33;;;0.38;;
56233;SDS011;42141;53.240;6.580;2022-09-21T14:50:53;6.82;;;0.75;;
56233;SDS011;42141;53.240;6.580;2022-09-21T14:59:21;6.80;;;0.68;;
56233;SDS011;42141;53.240;6.580;2022-09-21T15:02:00;7.35;;;0.90;;
56233;SDS011;42141;53.240;6.580;2022-09-21T15:04:45;6.43;;;0.82;;
56233;SDS011;42141;53.240;6.580;2022-09-21T15:10:25;4.15;;;0.75;;
56233;SDS011;42141;53.240;6.580;2022-09-21T15:13:26;5.30;;;0.80;;
56233;SDS011;42141;53.240;6.580;2022-09-21T15:18:47;6.07;;;0.60;;
56233;SDS011;42141;53.240;6.580;2022-09-21T15:21:19;4.40;;;0.60;;
56233;SDS011;42141;53.240;6.580;2022-09-21T15:23:53;7.55;;;0.65;;
56233;SDS011;42141;53.240;6.580;2022-09-21T15:26:27;7.40;;;0.50;;
56233;SDS011;42141;53.240;6.580;2022-09-21T15:28:56;4.60;;;1.10;;
56233;SDS011;42141;53.240;6.580;2022-09-21T15:31:36;6.82;;;0.80;;
56233;SDS011;42141;53.240;6.580;2022-09-21T15:34:04;4.82;;;0.80;;
56233;SDS011;42141;53.240;6.580;2022-09-21T15:36:35;6.72;;;0.65;;
56233;SDS011;42141;53.240;6.580;2022-09-21T15:39:03;6.13;;;0.70;;
56233;SDS011;42141;53.240;6.580;2022-09-21T15:41:36;5.70;;;0.93;;
56233;SDS011;42141;53.240;6.580;2022-09-21T15:44:23;4.40;;;0.95;;
56233;SDS011;42141;53.240;6.580;2022-09-21T15:46:55;5.47;;;0.63;;
56233;SDS011;42141;53.240;6.580;2022-09-21T15:49:25;6.88;;;0.63;;
56233;SDS011;42141;53.240;6.580;2022-09-21T15:54:35;2.57;;;0.47;;
56233;SDS011;42141;53.240;6.580;2022-09-21T15:57:21;3.70;;;0.75;;
56233;SDS011;42141;53.240;6.580;2022-09-21T15:59:50;7.22;;;1.05;;
56233;SDS011;42141;53.240;6.580;2022-09-21T16:02:20;3.90;;;0.60;;
56233;SDS011;42141;53.240;6.580;2022-09-21T16:04:49;2.50;;;0.38;;
56233;SDS011;42141;53.240;6.580;2022-09-21T16:07:36;3.42;;;0.60;;
56233;SDS011;42141;53.240;6.580;2022-09-21T16:10:24;5.05;;;0.80;;
56233;SDS011;42141;53.240;6.580;2022-09-21T16:13:08;5.72;;;0.85;;
56233;SDS011;42141;53.240;6.580;2022-09-21T16:15:58;3.55;;;0.52;;
56233;SDS011;42141;53.240;6.580;2022-09-21T16:18:50;3.88;;;0.63;;
56233;SDS011;42141;53.240;6.580;2022-09-21T16:23:45;2.55;;;0.30;;
56233;SDS011;42141;53.240;6.580;2022-09-21T16:26:19;2.92;;;0.40;;
56233;SDS011;42141;53.240;6.580;2022-09-21T16:28:47;5.45;;;0.60;;
56233;SDS011;42141;53.240;6.580;2022-09-21T16:31:39;3.92;;;0.32;;
56233;SDS011;42141;53.240;6.580;2022-09-21T16:34:18;6.68;;;0.90;;
56233;SDS011;42141;53.240;6.580;2022-09-21T16:36:57;6.00;;;0.45;;
56233;SDS011;42141;53.240;6.580;2022-09-21T16:39:23;3.83;;;0.57;;
56233;SDS011;42141;53.240;6.580;2022-09-21T16:41:50;3.90;;;0.47;;
56233;SDS011;42141;53.240;6.580;2022-09-21T16:44:22;1.58;;;0.25;;
56233;SDS011;42141;53.240;6.580;2022-09-21T16:46:51;4.55;;;0.77;;
56233;SDS011;42141;53.240;6.580;2022-09-21T16:49:25;2.25;;;0.47;;
56233;SDS011;42141;53.240;6.580;2022-09-21T16:51:55;5.82;;;0.75;;
56233;SDS011;42141;53.240;6.580;2022-09-21T16:54:21;3.75;;;0.47;;
56233;SDS011;42141;53.240;6.580;2022-09-21T16:56:51;1.83;;;0.52;;
56233;SDS011;42141;53.240;6.580;2022-09-21T16:59:19;4.95;;;0.93;;
56233;SDS011;42141;53.240;6.580;2022-09-21T17:01:49;13.40;;;1.20;;
56233;SDS011;42141;53.240;6.580;2022-09-21T17:04:17;5.10;;;0.47;;
56233;SDS011;42141;53.240;6.580;2022-09-21T17:06:46;5.28;;;0.60;;
56233;SDS011;42141;53.240;6.580;2022-09-21T17:09:22;5.85;;;2.35;;
56233;SDS011;42141;53.240;6.580;2022-09-21T17:11:55;5.28;;;0.85;;
56233;SDS011;42141;53.240;6.580;2022-09-21T17:14:25;7.18;;;0.95;;
56233;SDS011;42141;53.240;6.580;2022-09-21T17:16:56;4.88;;;1.00;;
56233;SDS011;42141;53.240;6.580;2022-09-21T17:19:23;3.15;;;0.50;;
56233;SDS011;42141;53.240;6.580;2022-09-21T17:21:50;4.65;;;0.45;;
56233;SDS011;42141;53.240;6.580;2022-09-21T17:24:15;6.38;;;0.57;;
56233;SDS011;42141;53.240;6.580;2022-09-21T17:26:42;9.05;;;1.13;;
56233;SDS011;42141;53.240;6.580;2022-09-21T17:29:16;7.00;;;1.00;;
56233;SDS011;42141;53.240;6.580;2022-09-21T17:31:50;2.05;;;0.43;;
56233;SDS011;42141;53.240;6.580;2022-09-21T17:34:26;4.65;;;0.85;;
56233;SDS011;42141;53.240;6.580;2022-09-21T17:36:53;2.97;;;0.50;;
56233;SDS011;42141;53.240;6.580;2022-09-21T17:39:21;5.20;;;0.65;;
56233;SDS011;42141;53.240;6.580;2022-09-21T17:42:05;4.57;;;0.90;;
56233;SDS011;42141;53.240;6.580;2022-09-21T17:49:52;3.80;;;1.10;;
56233;SDS011;42141;53.240;6.580;2022-09-21T17:52:37;4.10;;;1.15;;
56233;SDS011;42141;53.240;6.580;2022-09-21T17:55:22;6.00;;;1.00;;
56233;SDS011;42141;53.240;6.580;2022-09-21T18:03:24;9.85;;;1.02;;
56233;SDS011;42141;53.240;6.580;2022-09-21T18:05:52;3.60;;;0.85;;
56233;SDS011;42141;53.240;6.580;2022-09-21T18:08:26;5.95;;;0.95;;
56233;SDS011;42141;53.240;6.580;2022-09-21T18:11:02;6.95;;;1.20;;
56233;SDS011;42141;53.240;6.580;2022-09-21T18:19:27;6.78;;;0.95;;
56233;SDS011;42141;53.240;6.580;2022-09-21T18:22:02;6.75;;;1.95;;
56233;SDS011;42141;53.240;6.580;2022-09-21T18:24:39;6.95;;;1.38;;
56233;SDS011;42141;53.240;6.580;2022-09-21T18:27:06;4.13;;;1.20;;
56233;SDS011;42141;53.240;6.580;2022-09-21T18:29:35;8.57;;;1.88;;
56233;SDS011;42141;53.240;6.580;2022-09-21T18:48:58;2.17;;;0.77;;
56233;SDS011;42141;53.240;6.580;2022-09-21T18:51:47;4.38;;;1.02;;
56233;SDS011;42141;53.240;6.580;2022-09-21T18:54:27;1.75;;;0.77;;
56233;SDS011;42141;53.240;6.580;2022-09-21T18:56:53;7.70;;;1.10;;
56233;SDS011;42141;53.240;6.580;2022-09-21T18:59:20;3.80;;;1.00;;
56233;SDS011;42141;53.240;6.580;2022-09-21T19:01:46;5.30;;;1.02;;
56233;SDS011;42141;53.240;6.580;2022-09-21T19:04:13;4.20;;;1.13;;
56233;SDS011;42141;53.240;6.580;2022-09-21T19:06:55;3.20;;;0.90;;
56233;SDS011;42141;53.240;6.580;2022-09-21T19:09:30;2.88;;;0.77;;
56233;SDS011;42141;53.240;6.580;2022-09-21T19:15:06;3.75;;;0.80;;
56233;SDS011;42141;53.240;6.580;2022-09-21T19:25:58;4.63;;;1.03;;
56233;SDS011;42141;53.240;6.580;2022-09-21T19:31:13;4.38;;;1.25;;
56233;SDS011;42141;53.240;6.580;2022-09-21T19:33:42;1.85;;;0.63;;
56233;SDS011;42141;53.240;6.580;2022-09-21T19:36:09;2.55;;;0.85;;
56233;SDS011;42141;53.240;6.580;2022-09-21T19:38:37;3.08;;;0.82;;
56233;SDS011;42141;53.240;6.580;2022-09-21T19:50:12;7.47;;;1.17;;
56233;SDS011;42141;53.240;6.580;2022-09-21T19:52:47;3.28;;;1.00;;
56233;SDS011;42141;53.240;6.580;2022-09-21T19:55:15;3.75;;;1.38;;
56233;SDS011;42141;53.240;6.580;2022-09-21T19:58:04;9.10;;;1.80;;
56233;SDS011;42141;53.240;6.580;2022-09-21T20:00:53;2.67;;;1.20;;
56233;SDS011;42141;53.240;6.580;2022-09-21T20:06:00;4.38;;;1.88;;
56233;SDS011;42141;53.240;6.580;2022-09-21T20:08:38;3.80;;;1.63;;
56233;SDS011;42141;53.240;6.580;2022-09-21T20:11:12;5.53;;;1.60;;
56233;SDS011;42141;53.240;6.580;2022-09-21T20:13:58;4.00;;;1.40;;
56233;SDS011;42141;53.240;6.580;2022-09-21T20:16:44;8.07;;;1.50;;
56233;SDS011;42141;53.240;6.580;2022-09-21T20:22:02;8.48;;;1.58;;
56233;SDS011;42141;53.240;6.580;2022-09-21T20:24:41;8.27;;;1.27;;
56233;SDS011;42141;53.240;6.580;2022-09-21T20:27:15;7.60;;;1.38;;
56233;SDS011;42141;53.240;6.580;2022-09-21T20:29:54;6.05;;;1.27;;
56233;SDS011;42141;53.240;6.580;2022-09-21T20:32:20;4.60;;;1.55;;
56233;SDS011;42141;53.240;6.580;2022-09-21T20:34:46;8.05;;;2.22;;
56233;SDS011;42141;53.240;6.580;2022-09-21T20:37:14;3.20;;;1.63;;